Tuesday, January 15, 2019, 6:27 PM EST
Back to Local

KMLT, Millinocket Municipal Airport

Location: Millinocket, ME, United States Lat: 45.65
Local Time: 6:27 PM EST (23:27 GMT) Lon: -68.7
Time Zone: US/Eastern Elev: 406 ft

Show me the last for .
Show Decoded

2019-01-15 17:53 METAR KMLT 152253Z AUTO 00000KT 10SM CLR M12/M14 A3003 RMK AO2 SLP182 T11171139
                 =
2019-01-15 16:53 METAR KMLT 152153Z AUTO 26004KT 10SM CLR M08/M12 A3002 RMK AO2 SLP178 T10781117
                 =
2019-01-15 15:53 METAR KMLT 152053Z AUTO 27004KT 7SM FEW044 M06/M11 A3001 RMK AO2 SLP174
                 T10611111 53005 =
2019-01-15 14:53 METAR KMLT 151953Z AUTO 26005KT 10SM OVC044 M04/M11 A3000 RMK AO2 SLP171
                 T10441106 =
2019-01-15 13:53 METAR KMLT 151853Z AUTO 31004KT 10SM OVC043 M04/M11 A2999 RMK AO2 SLP167
                 T10391111 =
2019-01-15 12:53 METAR KMLT 151753Z AUTO 29004KT 10SM CLR M04/M11 A2999 RMK AO2 SLP168 T10441106
                 11044 21089 58014 =
2019-01-15 11:53 METAR KMLT 151653Z AUTO 29006KT 10SM SCT044 M06/M11 A3000 RMK AO2 SLP174
                 T10561111 =
2019-01-15 10:53 METAR KMLT 151553Z AUTO 30006KT 10SM CLR M06/M12 A3002 RMK AO2 SLP181 T10611117
                 =
2019-01-15 09:53 METAR KMLT 151453Z AUTO 30007KT 10SM FEW043 M07/M12 A3003 RMK AO2 SLP184
                 T10721122 51012 =
2019-01-15 08:53 METAR KMLT 151353Z AUTO 31009KT 10SM BKN049 M08/M13 A3003 RMK AO2 SLP182
                 T10781128 =
2019-01-15 07:53 METAR KMLT 151253Z AUTO 31008KT 10SM OVC047 M08/M13 A3001 RMK AO2 SLP177
                 T10831133 =
2019-01-15 06:53 METAR KMLT 151153Z AUTO 31009KT 10SM OVC046 M08/M13 A3000 RMK AO2 SLP172
                 T10831133 11083 21106 53007 =
2019-01-15 05:53 METAR KMLT 151053Z AUTO 31010KT 10SM OVC049 M08/M14 A2999 RMK AO2 SLP168
                 T10831139 =
2019-01-15 04:53 METAR KMLT 150953Z AUTO 31011KT 10SM OVC049 M09/M14 A2998 RMK AO2 SLP165
                 T10891139 =
2019-01-15 03:53 METAR KMLT 150853Z AUTO 31010KT 10SM OVC048 M10/M15 A2997 RMK AO2 SLP163
                 T11001150 58004 =
2019-01-15 02:53 METAR KMLT 150753Z AUTO 31009KT 10SM CLR M10/M16 A2998 RMK AO2 SLP165 T11001156
                 =
2019-01-15 01:53 METAR KMLT 150653Z AUTO 28005KT 10SM CLR M10/M16 A2999 RMK AO2 SLP168 T11001156
                 =
2019-01-15 00:53 METAR KMLT 150553Z AUTO 31008KT 10SM CLR M11/M16 A2999 RMK AO2 SLP168 I6000
                 T11061161 11106 21194 56022 =
2019-01-14 23:53 METAR KMLT 150453Z AUTO 29006KT 7SM CLR M13/M17 A3000 RMK AO2 SLP173 I1000
                 T11331167 410781250 =
2019-01-14 22:53 METAR KMLT 150353Z AUTO 00000KT 10SM CLR M19/M21 A3004 RMK AO2 SLP186 T11891211
                 =
2019-01-14 21:53 METAR KMLT 150253Z AUTO 00000KT 10SM CLR M18/M21 A3005 RMK AO2 SLP193 I3000
                 T11781206 56012 =
2019-01-14 20:53 METAR KMLT 150153Z AUTO 00000KT 6SM HZ CLR M17/M20 A3006 RMK AO2 SLP197 I1000
                 T11721200 =
2019-01-14 19:53 METAR KMLT 150053Z AUTO 00000KT 10SM CLR M17/M19 A3007 RMK AO2 SLP200 I1000
                 T11671194 =
2019-01-14 18:53 METAR KMLT 142353Z AUTO 00000KT 10SM CLR M14/M17 A3009 RMK AO2 SLP206 I1000
                 I6000 T11441167 11078 21161 58013 =

Support USWX by starting your Amazon purchase here.